Terminal Aerodrome Forecast
Issued by NWS Caribou, ME

Home | Current Version | Previous Version | Text Only | Print | Product List | Glossary On
Versions: 1 2 3 4 5 6 7 8 9 10 11 12 13 14 15 16 17
000
FTUS41 KCAR 211800 AAA
TAFBGR
TAF AMD
KBGR 211821Z 2118/2218 17008G15KT P6SM SCT012 BKN025
     FM220100 14004KT P6SM VCSH BKN018 OVC030
     FM220300 VRB02KT 6SM -SHRA BR OVC008
     FM220600 VRB02KT 3SM -SHRA BR OVC005
     FM220900 VRB03KT P6SM BKN008 OVC022
     FM221200 23007KT P6SM SCT025 BKN035
     FM221500 27009KT P6SM SCT050=

USA.gov is the U.S. government's official web portal to all federal, state and local government web resources and services.